createdAt,value
2022-09-11T00:01:47.358Z,81.57
2022-09-11T00:04:15.806Z,81.50
2022-09-11T00:06:44.262Z,81.71
2022-09-11T00:09:12.804Z,81.96
2022-09-11T00:11:43.372Z,82.07
2022-09-11T00:14:14.002Z,82.17
2022-09-11T00:16:47.608Z,82.32
2022-09-11T00:19:18.918Z,82.02
2022-09-11T00:21:47.600Z,81.74
2022-09-11T00:24:15.827Z,81.57
2022-09-11T00:26:44.981Z,81.48
2022-09-11T00:29:13.280Z,82.42
2022-09-11T00:31:41.726Z,82.52
2022-09-11T00:34:11.504Z,82.53
2022-09-11T00:36:43.184Z,82.34
2022-09-11T00:39:12.459Z,81.68
2022-09-11T00:41:44.765Z,81.67
2022-09-11T00:45:01.348Z,81.81
2022-09-11T00:47:32.075Z,82.00
2022-09-11T00:50:12.026Z,82.05
2022-09-11T00:52:43.373Z,82.18
2022-09-11T00:55:15.703Z,82.23
2022-09-11T00:57:53.694Z,82.38
2022-09-11T01:00:23.282Z,82.40
2022-09-11T01:02:54.535Z,82.81
2022-09-11T01:05:26.447Z,82.13
2022-09-11T01:07:57.169Z,81.94
2022-09-11T01:10:35.559Z,82.29
2022-09-11T01:13:11.717Z,82.54
2022-09-11T01:15:48.351Z,82.47
2022-09-11T01:18:27.943Z,82.34
2022-09-11T01:21:34.525Z,82.40
2022-09-11T01:24:26.316Z,82.71
2022-09-11T01:27:33.023Z,82.38
2022-09-11T01:30:09.548Z,82.52
2022-09-11T01:33:01.782Z,82.38
2022-09-11T01:35:42.923Z,81.66
2022-09-11T01:38:18.932Z,81.70
2022-09-11T01:40:54.617Z,82.15
2022-09-11T01:43:30.596Z,82.49
2022-09-11T01:46:02.830Z,82.33
2022-09-11T01:48:38.406Z,82.16
2022-09-11T01:51:09.804Z,82.58
2022-09-11T01:53:40.572Z,82.51
2022-09-11T01:56:15.788Z,82.41
2022-09-11T01:58:48.712Z,82.65
2022-09-11T02:01:22.630Z,82.19
2022-09-11T02:03:56.756Z,82.25
2022-09-11T02:06:34.221Z,82.33
2022-09-11T02:09:07.821Z,81.98
2022-09-11T02:11:41.964Z,82.31
2022-09-11T02:14:20.853Z,82.34
2022-09-11T02:16:52.362Z,82.82
2022-09-11T02:19:25.116Z,83.18
2022-09-11T02:21:54.358Z,83.19
2022-09-11T02:24:23.747Z,83.66
2022-09-11T02:26:59.153Z,83.24
2022-09-11T02:29:28.872Z,83.32
2022-09-11T02:32:00.477Z,83.28
2022-09-11T02:34:37.904Z,83.69
2022-09-11T02:37:38.467Z,83.88
2022-09-11T02:40:20.659Z,83.28
2022-09-11T02:43:08.664Z,83.55
2022-09-11T02:45:54.342Z,84.01
2022-09-11T02:48:45.507Z,83.68
2022-09-11T02:51:27.154Z,83.34
2022-09-11T02:54:05.542Z,83.08
2022-09-11T02:56:42.355Z,83.17
2022-09-11T02:59:19.193Z,83.00
2022-09-11T03:01:53.400Z,82.84
2022-09-11T03:04:25.829Z,82.76
2022-09-11T03:06:56.723Z,82.74
2022-09-11T03:09:25.145Z,82.54
2022-09-11T03:11:57.852Z,82.42
2022-09-11T03:14:26.160Z,82.13
2022-09-11T03:16:55.909Z,82.15
2022-09-11T03:19:25.170Z,82.42
2022-09-11T03:21:53.396Z,82.76
2022-09-11T03:24:23.367Z,82.90
2022-09-11T03:26:51.685Z,83.04
2022-09-11T03:29:20.039Z,83.19
2022-09-11T03:31:48.994Z,83.05
2022-09-11T03:34:19.793Z,83.29
2022-09-11T03:36:48.903Z,83.36
2022-09-11T03:39:17.190Z,83.23
2022-09-11T03:41:45.449Z,83.06
2022-09-11T03:44:13.716Z,83.17
2022-09-11T03:46:42.066Z,83.54
2022-09-11T03:49:10.600Z,83.46
2022-09-11T03:51:40.255Z,82.95
2022-09-11T03:54:08.550Z,82.36
2022-09-11T03:56:37.194Z,82.03
2022-09-11T03:59:05.829Z,81.94
2022-09-11T04:01:36.628Z,82.26
2022-09-11T04:04:05.299Z,82.21
2022-09-11T04:06:42.524Z,82.83
2022-09-11T04:09:10.884Z,82.73
2022-09-11T04:11:40.169Z,82.86
2022-09-11T04:14:23.504Z,82.91
2022-09-11T04:16:54.774Z,83.08
2022-09-11T04:19:23.771Z,82.86
2022-09-11T04:21:53.426Z,83.03
2022-09-11T04:24:22.897Z,82.78
2022-09-11T04:26:51.276Z,82.93
2022-09-11T04:29:24.204Z,82.52
2022-09-11T04:31:53.807Z,82.72
2022-09-11T04:34:26.203Z,82.44
2022-09-11T04:36:56.399Z,81.80
2022-09-11T04:39:25.393Z,81.57
2022-09-11T04:41:54.556Z,81.23
2022-09-11T04:44:24.148Z,81.21
2022-09-11T04:46:52.544Z,81.18
2022-09-11T04:49:21.811Z,81.67
2022-09-11T04:51:50.638Z,81.68
2022-09-11T04:54:26.017Z,81.30
2022-09-11T04:56:54.764Z,81.09
2022-09-11T04:59:24.340Z,81.06
2022-09-11T05:02:06.260Z,80.84
2022-09-11T05:04:38.746Z,81.27
2022-09-11T05:07:07.102Z,82.02
2022-09-11T05:09:37.840Z,82.18
2022-09-11T05:12:07.462Z,81.95
2022-09-11T05:14:37.984Z,81.21
2022-09-11T05:17:06.941Z,81.66
2022-09-11T05:19:40.161Z,81.49
2022-09-11T05:22:09.164Z,81.47
2022-09-11T05:24:40.817Z,81.75
2022-09-11T05:27:09.720Z,81.99
2022-09-11T05:29:39.714Z,82.21
2022-09-11T05:32:12.724Z,82.20
2022-09-11T05:34:42.533Z,81.72
2022-09-11T05:37:14.174Z,81.26
2022-09-11T05:39:47.420Z,81.33
2022-09-11T05:42:17.659Z,81.36
2022-09-11T05:44:50.619Z,81.53
2022-09-11T05:47:18.860Z,81.69
2022-09-11T05:49:50.645Z,81.91
2022-09-11T05:52:19.203Z,81.95
2022-09-11T05:54:48.901Z,81.25
2022-09-11T05:57:17.261Z,80.88
2022-09-11T05:59:45.495Z,80.35
2022-09-11T06:02:14.239Z,79.17
2022-09-11T06:04:48.317Z,79.21
2022-09-11T06:07:16.621Z,78.66
2022-09-11T06:09:52.587Z,78.42
2022-09-11T06:12:21.555Z,77.83
2022-09-11T06:14:51.044Z,77.24
2022-09-11T06:17:19.490Z,76.39
2022-09-11T06:19:48.296Z,76.20
2022-09-11T06:22:21.660Z,75.43
2022-09-11T06:24:53.641Z,74.93
2022-09-11T06:27:22.171Z,73.91
2022-09-11T06:29:51.769Z,73.48
2022-09-11T06:32:21.943Z,74.46
2022-09-11T06:34:50.353Z,73.40
2022-09-11T06:37:19.292Z,73.09
2022-09-11T06:39:49.260Z,73.00
2022-09-11T06:42:31.391Z,71.75
2022-09-11T06:45:02.567Z,71.29
2022-09-11T06:47:32.200Z,70.71
2022-09-11T06:50:00.766Z,70.20
2022-09-11T06:52:45.060Z,70.70
2022-09-11T06:55:22.720Z,70.80
2022-09-11T06:58:02.241Z,70.21
2022-09-11T07:00:32.668Z,69.44
2022-09-11T07:03:02.903Z,68.75
2022-09-11T07:05:32.088Z,68.36
2022-09-11T07:08:02.806Z,67.95
2022-09-11T07:10:34.696Z,67.72
2022-09-11T07:13:05.263Z,68.21
2022-09-11T07:15:33.878Z,67.45
2022-09-11T07:18:03.857Z,66.76
2022-09-11T07:20:32.614Z,66.38
2022-09-11T07:23:01.027Z,66.58
2022-09-11T07:25:32.196Z,65.99
2022-09-11T07:28:00.420Z,65.80
2022-09-11T07:30:32.504Z,65.83
2022-09-11T07:33:01.676Z,65.43
2022-09-11T07:35:31.046Z,65.50
2022-09-11T07:38:00.082Z,64.27
2022-09-11T07:40:29.514Z,63.93
2022-09-11T07:43:00.415Z,62.56
2022-09-11T07:45:30.660Z,62.55
2022-09-11T07:48:02.598Z,61.11
2022-09-11T07:50:32.322Z,62.30
2022-09-11T07:53:01.626Z,62.03
2022-09-11T07:55:30.156Z,61.97
2022-09-11T07:57:58.990Z,60.92
2022-09-11T08:00:27.441Z,60.18
2022-09-11T08:03:05.983Z,57.63
2022-09-11T08:05:37.262Z,58.98
2022-09-11T08:08:06.524Z,58.77
2022-09-11T08:10:40.934Z,57.68
2022-09-11T08:13:09.753Z,58.10
2022-09-11T08:15:38.927Z,60.12
2022-09-11T08:18:10.491Z,59.60
2022-09-11T08:20:38.906Z,59.14
2022-09-11T08:23:07.265Z,57.96
2022-09-11T08:25:37.242Z,57.33
2022-09-11T08:28:06.981Z,56.83
2022-09-11T08:30:38.222Z,56.84
2022-09-11T08:33:08.565Z,55.59
2022-09-11T08:35:39.158Z,55.99
2022-09-11T08:38:07.585Z,54.37
2022-09-11T08:40:39.830Z,54.38
2022-09-11T08:43:21.424Z,53.34
2022-09-11T08:45:52.311Z,54.31
2022-09-11T08:48:30.167Z,56.75
2022-09-11T08:51:00.042Z,57.36
2022-09-11T08:53:33.027Z,57.19
2022-09-11T08:56:09.104Z,54.92
2022-09-11T08:58:50.368Z,55.82
2022-09-11T09:01:30.444Z,56.29
2022-09-11T09:04:23.435Z,56.18
2022-09-11T09:07:06.835Z,56.08
2022-09-11T09:09:45.454Z,56.08
2022-09-11T09:12:24.091Z,55.56
2022-09-11T09:15:20.425Z,55.77
2022-09-11T09:17:55.495Z,57.64
2022-09-11T09:20:31.587Z,56.06
2022-09-11T09:23:05.380Z,56.61
2022-09-11T09:25:39.326Z,57.83
2022-09-11T09:28:19.236Z,59.92
2022-09-11T09:30:53.090Z,59.28
2022-09-11T09:33:36.186Z,58.13
2022-09-11T09:36:17.661Z,59.11
2022-09-11T09:38:49.195Z,59.52
2022-09-11T09:42:09.812Z,60.56
2022-09-11T09:45:03.765Z,60.27
2022-09-11T09:47:32.203Z,60.30
2022-09-11T09:50:00.829Z,59.39
2022-09-11T09:52:35.985Z,59.95
2022-09-11T09:55:12.720Z,58.44
2022-09-11T09:57:41.022Z,56.67
2022-09-11T10:00:19.815Z,55.78
2022-09-11T10:02:50.888Z,53.65
2022-09-11T10:05:25.556Z,52.07
2022-09-11T10:07:56.799Z,51.59
2022-09-11T10:10:32.071Z,49.82
2022-09-11T10:13:18.540Z,51.73
2022-09-11T10:15:50.476Z,53.94
2022-09-11T10:18:43.894Z,53.73
2022-09-11T10:21:24.064Z,52.96
2022-09-11T10:23:56.077Z,52.45
2022-09-11T10:26:30.741Z,52.00
2022-09-11T10:29:08.120Z,51.61
2022-09-11T10:31:40.101Z,50.73
2022-09-11T10:34:15.832Z,50.15
2022-09-11T10:36:55.007Z,50.71
2022-09-11T10:39:26.158Z,49.61
2022-09-11T10:42:00.018Z,48.71
2022-09-11T10:44:29.698Z,47.57
2022-09-11T10:47:07.216Z,47.24
2022-09-11T10:49:36.146Z,47.95
2022-09-11T10:52:18.781Z,49.34
2022-09-11T10:55:00.108Z,48.75
2022-09-11T10:57:35.955Z,49.11
2022-09-11T11:00:14.481Z,48.42
2022-09-11T11:02:47.061Z,48.51
2022-09-11T11:05:27.096Z,47.98
2022-09-11T11:08:58.736Z,48.90
2022-09-11T11:11:43.288Z,50.04
2022-09-11T11:14:56.743Z,50.07
2022-09-11T11:17:37.817Z,50.36
2022-09-11T11:20:28.133Z,49.85
2022-09-11T11:23:24.731Z,48.75
2022-09-11T11:26:04.501Z,49.71
2022-09-11T11:29:01.043Z,50.53
2022-09-11T11:32:03.486Z,50.99
2022-09-11T11:35:07.646Z,50.95
2022-09-11T11:37:42.659Z,51.21
2022-09-11T11:40:23.571Z,50.51
2022-09-11T11:42:58.175Z,49.99
2022-09-11T11:45:32.092Z,49.77
2022-09-11T11:48:08.448Z,49.90
2022-09-11T11:50:42.576Z,50.39
2022-09-11T11:53:19.906Z,50.48
2022-09-11T11:56:01.313Z,49.35
2022-09-11T11:58:47.031Z,50.49
2022-09-11T12:01:23.821Z,48.72
2022-09-11T12:04:02.605Z,47.70
2022-09-11T12:06:31.329Z,47.03
2022-09-11T12:08:59.929Z,49.00
2022-09-11T12:11:32.310Z,49.15
2022-09-11T12:14:01.826Z,48.36
2022-09-11T12:16:34.203Z,48.63
2022-09-11T12:19:15.696Z,47.82
2022-09-11T12:22:07.606Z,46.67
2022-09-11T12:24:58.816Z,45.03
2022-09-11T12:27:55.834Z,44.90
2022-09-11T12:30:30.760Z,44.13
2022-09-11T12:33:01.359Z,43.46
2022-09-11T12:35:41.587Z,43.89
2022-09-11T12:38:23.579Z,44.17
2022-09-11T12:40:56.397Z,44.14
2022-09-11T12:43:49.080Z,43.89
2022-09-11T12:47:07.955Z,44.07
2022-09-11T12:49:37.520Z,44.12
2022-09-11T12:52:23.695Z,44.70
2022-09-11T12:54:53.326Z,45.62
2022-09-11T12:57:29.043Z,46.82
2022-09-11T13:00:03.077Z,45.92
2022-09-11T13:02:36.785Z,45.59
2022-09-11T13:05:06.798Z,46.18
2022-09-11T13:07:44.271Z,46.92
2022-09-11T13:10:33.404Z,47.21
2022-09-11T13:13:06.620Z,46.98
2022-09-11T13:15:42.126Z,47.85
2022-09-11T13:18:31.104Z,47.78
2022-09-11T13:21:01.697Z,47.78
2022-09-11T13:23:32.700Z,46.50
2022-09-11T13:26:02.775Z,46.66
2022-09-11T13:28:32.211Z,47.57
2022-09-11T13:31:04.882Z,47.29
2022-09-11T13:33:33.816Z,47.36
2022-09-11T13:36:03.731Z,46.92
2022-09-11T13:38:36.598Z,47.48
2022-09-11T13:41:08.815Z,46.81
2022-09-11T13:43:42.416Z,46.33
2022-09-11T13:46:22.958Z,47.07
2022-09-11T13:48:56.421Z,46.91
2022-09-11T13:51:31.121Z,46.59
2022-09-11T13:54:08.991Z,47.39
2022-09-11T13:56:48.093Z,45.83
2022-09-11T13:59:38.489Z,46.92
2022-09-11T14:02:20.546Z,46.21
2022-09-11T14:04:52.232Z,45.68
2022-09-11T14:07:24.683Z,44.48
2022-09-11T14:10:05.932Z,46.54
2022-09-11T14:12:36.312Z,46.35
2022-09-11T14:15:17.377Z,47.40
2022-09-11T14:17:45.711Z,45.81
2022-09-11T14:20:20.118Z,46.06
2022-09-11T14:22:48.720Z,46.33
2022-09-11T14:25:24.521Z,46.17
2022-09-11T14:27:53.171Z,46.94
2022-09-11T14:30:37.135Z,46.69
2022-09-11T14:33:19.331Z,46.82
2022-09-11T14:35:48.921Z,46.25
2022-09-11T14:38:20.627Z,45.54
2022-09-11T14:40:59.154Z,46.33
2022-09-11T14:43:32.658Z,46.99
2022-09-11T14:46:02.851Z,47.83
2022-09-11T14:48:35.315Z,46.82
2022-09-11T14:51:12.738Z,47.66
2022-09-11T14:53:43.421Z,46.34
2022-09-11T14:56:13.306Z,47.24
2022-09-11T14:58:41.550Z,47.20
2022-09-11T15:01:15.473Z,46.72
2022-09-11T15:03:44.105Z,46.88
2022-09-11T15:06:19.127Z,46.58
2022-09-11T15:08:47.610Z,46.42
2022-09-11T15:11:17.178Z,45.84
2022-09-11T15:14:04.331Z,47.11
2022-09-11T15:16:34.561Z,46.66
2022-09-11T15:19:02.759Z,47.05
2022-09-11T15:21:35.320Z,46.58
2022-09-11T15:24:06.972Z,46.52
2022-09-11T15:26:37.275Z,45.88
2022-09-11T15:29:09.913Z,46.76
2022-09-11T15:31:38.200Z,48.14
2022-09-11T15:34:07.390Z,49.18
2022-09-11T15:36:38.107Z,50.69
2022-09-11T15:39:07.006Z,50.14
2022-09-11T15:41:36.612Z,50.57
2022-09-11T15:44:11.468Z,51.63
2022-09-11T15:46:40.255Z,52.90
2022-09-11T15:49:08.636Z,52.89
2022-09-11T15:51:37.051Z,53.13
2022-09-11T15:54:05.815Z,52.63
2022-09-11T15:56:36.031Z,54.28
2022-09-11T15:59:05.023Z,54.24
2022-09-11T16:01:37.423Z,53.47
2022-09-11T16:04:08.637Z,53.82
2022-09-11T16:06:39.648Z,53.60
2022-09-11T16:09:10.655Z,55.20
2022-09-11T16:11:40.911Z,55.75
2022-09-11T16:14:09.643Z,54.83
2022-09-11T16:16:37.968Z,53.95
2022-09-11T16:19:06.249Z,53.71
2022-09-11T16:21:34.462Z,53.39
2022-09-11T16:24:06.828Z,53.09
2022-09-11T16:26:35.210Z,52.79
2022-09-11T16:29:08.600Z,52.67
2022-09-11T16:31:37.217Z,52.61
2022-09-11T16:34:06.686Z,52.33
2022-09-11T16:36:38.466Z,52.57
2022-09-11T16:39:08.923Z,53.02
2022-09-11T16:41:38.095Z,52.46
2022-09-11T16:44:10.968Z,52.69
2022-09-11T16:46:40.572Z,51.96
2022-09-11T16:49:09.560Z,52.20
2022-09-11T16:51:37.792Z,52.52
2022-09-11T16:54:06.083Z,52.36
2022-09-11T16:56:34.447Z,52.52
2022-09-11T16:59:02.677Z,52.29
2022-09-11T17:01:32.264Z,52.96
2022-09-11T17:04:00.601Z,52.76
2022-09-11T17:06:29.952Z,52.99
2022-09-11T17:09:00.336Z,53.17
2022-09-11T17:11:31.499Z,53.13
2022-09-11T17:14:02.676Z,53.07
2022-09-11T17:16:35.688Z,52.50
2022-09-11T17:19:03.954Z,52.79
2022-09-11T17:21:35.847Z,52.94
2022-09-11T17:24:07.422Z,53.34
2022-09-11T17:26:36.091Z,53.47
2022-09-11T17:29:05.784Z,53.65
2022-09-11T17:31:35.398Z,53.43
2022-09-11T17:34:03.743Z,53.78
2022-09-11T17:36:32.022Z,54.10
2022-09-11T17:39:00.956Z,54.46
2022-09-11T17:41:29.638Z,54.27
2022-09-11T17:43:58.288Z,54.03
2022-09-11T17:46:26.627Z,54.32
2022-09-11T17:48:56.359Z,54.24
2022-09-11T17:51:27.908Z,54.46
2022-09-11T17:53:58.657Z,54.99
2022-09-11T17:56:31.572Z,54.82
2022-09-11T17:59:00.951Z,55.39
2022-09-11T18:01:31.647Z,55.91
2022-09-11T18:04:01.494Z,55.76
2022-09-11T18:06:34.497Z,55.84
2022-09-11T18:09:11.824Z,56.04
2022-09-11T18:11:40.617Z,56.37
2022-09-11T18:14:09.150Z,56.37
2022-09-11T18:16:37.669Z,56.99
2022-09-11T18:19:07.734Z,57.09
2022-09-11T18:21:38.351Z,57.25
2022-09-11T18:24:09.863Z,57.13
2022-09-11T18:26:40.284Z,57.39
2022-09-11T18:29:12.231Z,58.90
2022-09-11T18:31:43.148Z,58.47
2022-09-11T18:34:15.846Z,58.38
2022-09-11T18:36:45.432Z,59.25
2022-09-11T18:39:16.768Z,59.79
2022-09-11T18:41:46.343Z,60.37
2022-09-11T18:44:19.677Z,60.51
2022-09-11T18:46:48.902Z,60.98
2022-09-11T18:49:18.638Z,60.13
2022-09-11T18:51:46.874Z,60.37
2022-09-11T18:54:16.588Z,60.34
2022-09-11T18:56:45.823Z,60.58
2022-09-11T18:59:15.320Z,60.71
2022-09-11T19:01:43.751Z,62.10
2022-09-11T19:04:14.318Z,63.08
2022-09-11T19:06:44.731Z,62.13
2022-09-11T19:09:14.088Z,63.31
2022-09-11T19:11:42.991Z,62.75
2022-09-11T19:14:13.409Z,62.64
2022-09-11T19:16:41.886Z,62.93
2022-09-11T19:19:10.805Z,62.67
2022-09-11T19:21:39.109Z,62.90
2022-09-11T19:24:08.994Z,62.73
2022-09-11T19:26:40.031Z,62.58
2022-09-11T19:29:09.578Z,62.26
2022-09-11T19:31:39.426Z,62.81
2022-09-11T19:34:09.988Z,63.48
2022-09-11T19:36:38.614Z,64.08
2022-09-11T19:39:08.733Z,64.38
2022-09-11T19:41:39.505Z,65.16
2022-09-11T19:44:12.090Z,65.66
2022-09-11T19:46:42.924Z,65.64
2022-09-11T19:49:12.133Z,65.95
2022-09-11T19:51:45.023Z,66.20
2022-09-11T19:54:15.683Z,66.77
2022-09-11T19:56:45.120Z,68.29
2022-09-11T19:59:14.571Z,69.13
2022-09-11T20:01:43.529Z,69.91
2022-09-11T20:04:13.635Z,70.07
2022-09-11T20:06:41.970Z,70.41
2022-09-11T20:09:30.531Z,70.25
2022-09-11T20:12:01.431Z,69.62
2022-09-11T20:14:31.006Z,68.87
2022-09-11T20:17:00.986Z,68.46
2022-09-11T20:19:29.548Z,67.86
2022-09-11T20:21:57.809Z,67.93
2022-09-11T20:24:26.277Z,67.60
2022-09-11T20:26:54.986Z,67.58
2022-09-11T20:29:25.600Z,67.52
2022-09-11T20:31:55.179Z,67.47
2022-09-11T20:34:27.829Z,67.47
2022-09-11T20:36:57.019Z,67.41
2022-09-11T20:39:25.318Z,67.79
2022-09-11T20:41:53.534Z,67.69
2022-09-11T20:44:21.775Z,68.80
2022-09-11T20:46:51.473Z,68.50
2022-09-11T20:49:19.796Z,68.58
2022-09-11T20:51:48.015Z,68.44
2022-09-11T20:54:16.510Z,69.58
2022-09-11T20:56:46.211Z,70.76
2022-09-11T20:59:14.751Z,71.26
2022-09-11T21:01:43.183Z,71.46
2022-09-11T21:04:13.964Z,71.01
2022-09-11T21:06:42.443Z,70.74
2022-09-11T21:09:13.375Z,70.60
2022-09-11T21:11:42.520Z,70.83
2022-09-11T21:14:11.943Z,70.67
2022-09-11T21:16:40.287Z,70.78
2022-09-11T21:19:09.992Z,71.33
2022-09-11T21:21:40.114Z,71.14
2022-09-11T21:24:12.464Z,70.96
2022-09-11T21:26:40.837Z,70.99
2022-09-11T21:29:12.239Z,71.87
2022-09-11T21:31:40.527Z,71.74
2022-09-11T21:34:08.971Z,72.12
2022-09-11T21:36:37.910Z,71.89
2022-09-11T21:39:07.646Z,72.04
2022-09-11T21:41:35.944Z,71.96
2022-09-11T21:44:04.392Z,71.92
2022-09-11T21:46:32.738Z,72.17
2022-09-11T21:49:01.662Z,71.60
2022-09-11T21:51:30.011Z,71.60
2022-09-11T21:54:01.807Z,71.53
2022-09-11T21:56:33.917Z,71.90
2022-09-11T21:59:02.536Z,71.77
2022-09-11T22:01:32.061Z,71.82
2022-09-11T22:04:01.265Z,72.34
2022-09-11T22:06:30.734Z,72.77
2022-09-11T22:08:59.696Z,73.76
2022-09-11T22:11:28.535Z,73.69
2022-09-11T22:13:58.133Z,73.83
2022-09-11T22:16:26.510Z,74.62
2022-09-11T22:18:56.889Z,74.45
2022-09-11T22:21:25.215Z,74.47
2022-09-11T22:23:53.430Z,74.02
2022-09-11T22:26:23.827Z,73.98
2022-09-11T22:28:52.994Z,74.22
2022-09-11T22:31:26.046Z,74.37
2022-09-11T22:33:55.299Z,74.34
2022-09-11T22:36:27.280Z,74.54
2022-09-11T22:38:56.098Z,74.90
2022-09-11T22:41:24.611Z,74.51
2022-09-11T22:43:53.511Z,74.58
2022-09-11T22:46:23.885Z,74.37
2022-09-11T22:48:52.122Z,74.27
2022-09-11T22:51:20.440Z,74.52
2022-09-11T22:53:48.718Z,74.43
2022-09-11T22:56:17.216Z,74.49
2022-09-11T22:58:45.664Z,74.49
2022-09-11T23:01:21.084Z,74.19
2022-09-11T23:03:52.058Z,74.36
2022-09-11T23:06:38.728Z,74.51
2022-09-11T23:09:09.163Z,75.26
2022-09-11T23:11:37.536Z,75.07
2022-09-11T23:14:09.321Z,75.07
2022-09-11T23:16:41.786Z,74.94
2022-09-11T23:19:14.928Z,74.99
2022-09-11T23:21:43.626Z,75.79
2022-09-11T23:24:14.222Z,76.63
2022-09-11T23:26:43.336Z,76.63
2022-09-11T23:29:12.288Z,76.78
2022-09-11T23:31:41.364Z,76.06
2022-09-11T23:34:14.871Z,76.04
2022-09-11T23:36:44.136Z,76.12
2022-09-11T23:39:12.635Z,75.96
2022-09-11T23:41:41.001Z,76.05
2022-09-11T23:44:10.091Z,76.32
2022-09-11T23:46:38.623Z,76.09
2022-09-11T23:49:07.408Z,75.89
2022-09-11T23:51:36.964Z,75.96
2022-09-11T23:54:05.398Z,75.99
2022-09-11T23:56:33.703Z,76.56
2022-09-11T23:59:01.953Z,76.80
